»·PEaware :: N736PM KBIL-KJAC

N736PM :: KBIL-KJAC

FLIGHT INFORMATION

Flight Status: Arrived
Operator: Privately registered:
United States
More flights under this callsign
Pilot: Paul A. (20189)
Aircraft: BOEING 737-600
(B736)
More flights by this aircraft type
Origin: KBIL Billings Logan Intl
United States
Destination: KJAC Jackson Hole
United States
More flights between these airports :: More routes between these airports
Route: +BIL5 NELKS DNW
File this flight plan on PilotEdge
Remarks:
Altitude:
(Current/Filed)
26,000ft
Speed:
(Current/Filed)
420kts
Departed: 14-Oct-18 11:45 AM
Arrived: 14-Oct-18 12:20 PM
Distance/Time
Traveled:
162nm/0:34
Distance/Time
To Go:
Arrived

Flight Plot

Page will automatically refresh every two minutes.

Flight plan parsing failed; only flown route is shown


Map Options




Map Legend


Flown Route
Filed Route
Departure Airport
Arrival Airport
Navaid (VOR, NDB)
Fix

Horizontal Profiles

Position Reports

Time Latitude Longitude Heading Altitude Ground
Speed
14-Oct-18 11:28 45.804085 -108.540133 177 3587ft 0kts
14-Oct-18 11:29 45.804085 -108.540133 177 3588ft 0kts
14-Oct-18 11:30 45.804085 -108.540133 177 3588ft 0kts
14-Oct-18 11:31 45.804085 -108.540133 177 3588ft 0kts
14-Oct-18 11:32 45.804085 -108.540133 177 3588ft 0kts
14-Oct-18 11:33 45.804085 -108.540133 177 3588ft 0kts
14-Oct-18 11:34 45.804085 -108.540133 177 3588ft 0kts
14-Oct-18 11:35 45.804085 -108.540133 177 3588ft 0kts
14-Oct-18 11:36 45.804085 -108.540133 177 3588ft 0kts
14-Oct-18 11:37 45.804085 -108.540133 177 3588ft 0kts
14-Oct-18 11:38 45.804085 -108.540133 177 3588ft 0kts
14-Oct-18 11:39 45.804092 -108.540133 176 3588ft 0kts
14-Oct-18 11:40 45.804091 -108.540133 176 3588ft 0kts
14-Oct-18 11:41 45.804088 -108.540133 176 3588ft 0kts
14-Oct-18 11:42 45.804567 -108.539452 6 3588ft 13kts
14-Oct-18 11:43 45.804788 -108.534035 99 3588ft 16kts
14-Oct-18 11:44 45.803812 -108.526614 112 3588ft 25kts
14-Oct-18 11:45 45.801739 -108.518885 99 3588ft 21kts
14-Oct-18 11:46 45.802285 -108.517289 301 3588ft 13kts
14-Oct-18 11:47 45.816222 -108.562743 293 5814ft 161kts
14-Oct-18 11:48 45.840282 -108.642307 293 7011ft 258kts
14-Oct-18 11:49 45.868279 -108.735083 293 7003ft 249kts
14-Oct-18 11:50 45.860566 -108.827267 219 11121ft 278kts
14-Oct-18 11:51 45.786722 -108.882944 210 15260ft 314kts
14-Oct-18 11:52 45.705213 -108.943834 210 19230ft 343kts
14-Oct-18 11:53 45.617427 -109.009135 210 23022ft 368kts
14-Oct-18 11:54 45.523977 -109.078619 209 26090ft 390kts
14-Oct-18 11:55 45.427825 -109.149387 209 26373ft 386kts
14-Oct-18 11:56 45.331368 -109.219839 208 26376ft 410kts
14-Oct-18 11:57 45.203785 -109.317118 210 26361ft 457kts
14-Oct-18 11:58 45.110498 -109.387855 209 26355ft 456kts
14-Oct-18 11:59 44.998549 -109.472545 209 26360ft 456kts
14-Oct-18 12:00 44.886786 -109.556894 209 26363ft 455kts
14-Oct-18 12:01 44.775136 -109.640587 209 26350ft 454kts
14-Oct-18 12:02 44.663506 -109.723852 209 26348ft 454kts
14-Oct-18 12:03 44.533591 -109.820274 209 26341ft 452kts
14-Oct-18 12:04 44.440698 -109.888917 209 26331ft 452kts
14-Oct-18 12:05 44.329630 -109.970672 209 25728ft 449kts
14-Oct-18 12:06 44.201717 -110.064394 208 24561ft 442kts
14-Oct-18 12:07 44.111297 -110.130396 208 23725ft 437kts
14-Oct-18 12:08 44.013399 -110.227867 224 22709ft 432kts
14-Oct-18 12:09 43.926157 -110.340399 224 21448ft 431kts
14-Oct-18 12:10 43.842065 -110.449009 225 19987ft 402kts
14-Oct-18 12:11 43.762694 -110.548115 212 18467ft 375kts
14-Oct-18 12:12 43.665233 -110.593246 197 16931ft 362kts
14-Oct-18 12:13 43.574429 -110.631593 197 14927ft 327kts
14-Oct-18 12:14 43.489606 -110.667548 197 13217ft 311kts
14-Oct-18 12:15 43.414999 -110.702894 204 11802ft 261kts
14-Oct-18 12:16 43.399773 -110.770005 316 10440ft 207kts
14-Oct-18 12:17 43.441062 -110.814950 331 9037ft 177kts
14-Oct-18 12:18 43.486230 -110.809038 30 8895ft 173kts
14-Oct-18 12:19 43.524186 -110.778274 21 7944ft 144kts
14-Oct-18 12:20 43.559216 -110.761709 26 7105ft 121kts
14-Oct-18 12:21 43.589986 -110.746303 23 6668ft 127kts
14-Oct-18 12:22 43.609115 -110.735830 122 6459ft 8kts
14-Oct-18 12:23 43.607023 -110.736283 199 6459ft 27kts
14-Oct-18 12:24 43.601741 -110.738860 198 6459ft 20kts
14-Oct-18 12:25 43.599791 -110.738629 110 6459ft 0kts
14-Oct-18 12:26 43.599791 -110.738629 110 6459ft 0kts
14-Oct-18 12:27 43.599791 -110.738629 110 6459ft 0kts
14-Oct-18 12:28 43.599791 -110.738629 110 6459ft 0kts
14-Oct-18 12:29 43.599791 -110.738629 110 6459ft 0kts

Navigation Log

Ident Type
Flight plan parsing failed, navigation log unavailable